sensor_id;sensor_type;location;lat;lon;timestamp;P1;durP1;ratioP1;P2;durP2;ratioP2
66707;SDS011;53622;0.000;0.000;2023-04-10T00:00:24;0.90;;;0.90;;
66707;SDS011;53622;0.000;0.000;2023-04-10T00:02:53;0.70;;;0.70;;
66707;SDS011;53622;0.000;0.000;2023-04-10T00:05:23;1.00;;;0.93;;
66707;SDS011;53622;0.000;0.000;2023-04-10T00:07:54;0.85;;;0.85;;
66707;SDS011;53622;0.000;0.000;2023-04-10T00:10:23;0.95;;;0.95;;
66707;SDS011;53622;0.000;0.000;2023-04-10T00:12:55;0.90;;;0.90;;
66707;SDS011;53622;0.000;0.000;2023-04-10T00:15:27;1.33;;;0.90;;
66707;SDS011;53622;0.000;0.000;2023-04-10T00:17:56;1.05;;;0.98;;
66707;SDS011;53622;0.000;0.000;2023-04-10T00:20:26;0.80;;;0.80;;
66707;SDS011;53622;0.000;0.000;2023-04-10T00:22:56;0.88;;;0.88;;
66707;SDS011;53622;0.000;0.000;2023-04-10T00:25:25;0.85;;;0.82;;
66707;SDS011;53622;0.000;0.000;2023-04-10T00:27:55;1.35;;;1.25;;
66707;SDS011;53622;0.000;0.000;2023-04-10T00:30:24;1.10;;;1.00;;
66707;SDS011;53622;0.000;0.000;2023-04-10T00:32:53;1.08;;;1.00;;
66707;SDS011;53622;0.000;0.000;2023-04-10T00:35:23;0.93;;;0.93;;
66707;SDS011;53622;0.000;0.000;2023-04-10T00:37:52;0.98;;;0.98;;
66707;SDS011;53622;0.000;0.000;2023-04-10T00:40:24;2.03;;;1.00;;
66707;SDS011;53622;0.000;0.000;2023-04-10T00:42:56;1.30;;;1.20;;
66707;SDS011;53622;0.000;0.000;2023-04-10T00:45:25;1.02;;;0.93;;
66707;SDS011;53622;0.000;0.000;2023-04-10T00:47:55;0.90;;;0.90;;
66707;SDS011;53622;0.000;0.000;2023-04-10T00:50:24;0.95;;;0.93;;
66707;SDS011;53622;0.000;0.000;2023-04-10T00:52:54;1.20;;;0.90;;
66707;SDS011;53622;0.000;0.000;2023-04-10T00:55:25;1.10;;;1.00;;
66707;SDS011;53622;0.000;0.000;2023-04-10T00:57:55;1.92;;;1.20;;
66707;SDS011;53622;0.000;0.000;2023-04-10T01:00:25;0.90;;;0.90;;
66707;SDS011;53622;0.000;0.000;2023-04-10T01:02:54;0.82;;;0.82;;
66707;SDS011;53622;0.000;0.000;2023-04-10T01:05:23;1.95;;;1.08;;
66707;SDS011;53622;0.000;0.000;2023-04-10T01:07:58;0.98;;;0.98;;
66707;SDS011;53622;0.000;0.000;2023-04-10T01:10:40;1.20;;;1.10;;
66707;SDS011;53622;0.000;0.000;2023-04-10T01:13:19;2.90;;;1.20;;
66707;SDS011;53622;0.000;0.000;2023-04-10T01:15:55;1.02;;;1.00;;
66707;SDS011;53622;0.000;0.000;2023-04-10T01:18:30;0.80;;;0.80;;
66707;SDS011;53622;0.000;0.000;2023-04-10T01:21:04;0.90;;;0.90;;
66707;SDS011;53622;0.000;0.000;2023-04-10T01:23:45;1.55;;;1.00;;
66707;SDS011;53622;0.000;0.000;2023-04-10T01:26:41;1.02;;;0.95;;
66707;SDS011;53622;0.000;0.000;2023-04-10T01:29:21;1.20;;;1.10;;
66707;SDS011;53622;0.000;0.000;2023-04-10T01:32:00;1.20;;;1.00;;
66707;SDS011;53622;0.000;0.000;2023-04-10T01:34:31;0.95;;;0.90;;
66707;SDS011;53622;0.000;0.000;2023-04-10T01:37:08;1.02;;;0.95;;
66707;SDS011;53622;0.000;0.000;2023-04-10T01:39:43;1.10;;;0.90;;
66707;SDS011;53622;0.000;0.000;2023-04-10T01:42:17;1.00;;;1.00;;
66707;SDS011;53622;0.000;0.000;2023-04-10T01:44:51;1.17;;;1.00;;
66707;SDS011;53622;0.000;0.000;2023-04-10T01:47:22;0.90;;;0.90;;
66707;SDS011;53622;0.000;0.000;2023-04-10T01:49:54;0.95;;;0.90;;
66707;SDS011;53622;0.000;0.000;2023-04-10T01:52:24;0.85;;;0.85;;
66707;SDS011;53622;0.000;0.000;2023-04-10T01:55:15;1.15;;;0.98;;
66707;SDS011;53622;0.000;0.000;2023-04-10T01:57:50;2.00;;;1.00;;
66707;SDS011;53622;0.000;0.000;2023-04-10T02:00:23;1.10;;;1.00;;
66707;SDS011;53622;0.000;0.000;2023-04-10T02:02:53;1.10;;;1.00;;
66707;SDS011;53622;0.000;0.000;2023-04-10T02:05:24;1.08;;;0.98;;
66707;SDS011;53622;0.000;0.000;2023-04-10T02:08:01;1.02;;;0.93;;
66707;SDS011;53622;0.000;0.000;2023-04-10T02:10:40;1.10;;;0.95;;
66707;SDS011;53622;0.000;0.000;2023-04-10T02:13:18;0.90;;;0.90;;
66707;SDS011;53622;0.000;0.000;2023-04-10T02:15:51;1.00;;;1.00;;
66707;SDS011;53622;0.000;0.000;2023-04-10T02:18:25;1.00;;;1.00;;
66707;SDS011;53622;0.000;0.000;2023-04-10T02:20:55;1.08;;;0.98;;
66707;SDS011;53622;0.000;0.000;2023-04-10T02:23:24;1.00;;;0.90;;
66707;SDS011;53622;0.000;0.000;2023-04-10T02:25:54;0.90;;;0.90;;
66707;SDS011;53622;0.000;0.000;2023-04-10T02:28:24;0.85;;;0.85;;
66707;SDS011;53622;0.000;0.000;2023-04-10T02:30:55;0.90;;;0.90;;
66707;SDS011;53622;0.000;0.000;2023-04-10T02:33:25;1.83;;;1.00;;
66707;SDS011;53622;0.000;0.000;2023-04-10T02:35:55;1.10;;;1.00;;
66707;SDS011;53622;0.000;0.000;2023-04-10T02:38:24;1.20;;;1.10;;
66707;SDS011;53622;0.000;0.000;2023-04-10T02:40:54;0.93;;;0.93;;
66707;SDS011;53622;0.000;0.000;2023-04-10T02:43:24;0.88;;;0.75;;
66707;SDS011;53622;0.000;0.000;2023-04-10T02:45:55;1.10;;;1.10;;
66707;SDS011;53622;0.000;0.000;2023-04-10T02:48:30;0.75;;;0.75;;
66707;SDS011;53622;0.000;0.000;2023-04-10T02:51:01;0.70;;;0.70;;
66707;SDS011;53622;0.000;0.000;2023-04-10T02:53:31;0.80;;;0.80;;
66707;SDS011;53622;0.000;0.000;2023-04-10T02:56:01;1.10;;;1.00;;
66707;SDS011;53622;0.000;0.000;2023-04-10T02:58:32;1.00;;;0.93;;
66707;SDS011;53622;0.000;0.000;2023-04-10T03:01:05;1.15;;;1.00;;
66707;SDS011;53622;0.000;0.000;2023-04-10T03:03:40;0.80;;;0.80;;
66707;SDS011;53622;0.000;0.000;2023-04-10T03:06:10;1.30;;;1.20;;
66707;SDS011;53622;0.000;0.000;2023-04-10T03:08:42;1.08;;;1.00;;
66707;SDS011;53622;0.000;0.000;2023-04-10T03:11:11;1.25;;;1.10;;
66707;SDS011;53622;0.000;0.000;2023-04-10T03:13:40;1.17;;;1.08;;
66707;SDS011;53622;0.000;0.000;2023-04-10T03:16:11;1.40;;;1.00;;
66707;SDS011;53622;0.000;0.000;2023-04-10T03:18:41;0.90;;;0.90;;
66707;SDS011;53622;0.000;0.000;2023-04-10T03:21:10;2.35;;;1.10;;
66707;SDS011;53622;0.000;0.000;2023-04-10T03:23:39;0.82;;;0.82;;
66707;SDS011;53622;0.000;0.000;2023-04-10T03:26:09;1.20;;;1.10;;
66707;SDS011;53622;0.000;0.000;2023-04-10T03:28:39;1.60;;;0.88;;
66707;SDS011;53622;0.000;0.000;2023-04-10T03:31:10;0.90;;;0.90;;
66707;SDS011;53622;0.000;0.000;2023-04-10T03:33:42;1.15;;;1.10;;
66707;SDS011;53622;0.000;0.000;2023-04-10T03:36:11;0.95;;;0.95;;
66707;SDS011;53622;0.000;0.000;2023-04-10T03:38:40;1.17;;;1.05;;
66707;SDS011;53622;0.000;0.000;2023-04-10T03:41:10;1.15;;;1.10;;
66707;SDS011;53622;0.000;0.000;2023-04-10T03:43:40;1.33;;;1.10;;
66707;SDS011;53622;0.000;0.000;2023-04-10T03:46:10;1.20;;;1.10;;
66707;SDS011;53622;0.000;0.000;2023-04-10T03:48:43;0.90;;;0.90;;
66707;SDS011;53622;0.000;0.000;2023-04-10T03:51:12;1.23;;;1.17;;
66707;SDS011;53622;0.000;0.000;2023-04-10T03:53:41;1.15;;;1.08;;
66707;SDS011;53622;0.000;0.000;2023-04-10T03:56:14;0.90;;;0.90;;
66707;SDS011;53622;0.000;0.000;2023-04-10T03:58:45;1.10;;;1.00;;
66707;SDS011;53622;0.000;0.000;2023-04-10T04:01:16;1.15;;;1.13;;
66707;SDS011;53622;0.000;0.000;2023-04-10T04:04:05;1.10;;;1.00;;
66707;SDS011;53622;0.000;0.000;2023-04-10T04:06:57;1.02;;;1.02;;
66707;SDS011;53622;0.000;0.000;2023-04-10T04:09:52;1.08;;;0.98;;
66707;SDS011;53622;0.000;0.000;2023-04-10T04:12:45;1.20;;;1.20;;
66707;SDS011;53622;0.000;0.000;2023-04-10T04:15:37;0.85;;;0.80;;
66707;SDS011;53622;0.000;0.000;2023-04-10T04:18:31;1.20;;;1.10;;
66707;SDS011;53622;0.000;0.000;2023-04-10T04:21:19;1.33;;;1.23;;
66707;SDS011;53622;0.000;0.000;2023-04-10T04:24:10;1.20;;;1.10;;
66707;SDS011;53622;0.000;0.000;2023-04-10T04:26:57;1.30;;;1.20;;
66707;SDS011;53622;0.000;0.000;2023-04-10T04:29:53;1.20;;;1.10;;
66707;SDS011;53622;0.000;0.000;2023-04-10T04:32:26;1.35;;;1.25;;
66707;SDS011;53622;0.000;0.000;2023-04-10T04:35:17;0.88;;;0.88;;
66707;SDS011;53622;0.000;0.000;2023-04-10T04:38:05;1.13;;;1.02;;
66707;SDS011;53622;0.000;0.000;2023-04-10T04:40:43;1.17;;;1.08;;
66707;SDS011;53622;0.000;0.000;2023-04-10T04:43:39;1.23;;;1.00;;
66707;SDS011;53622;0.000;0.000;2023-04-10T04:46:26;0.95;;;0.95;;
66707;SDS011;53622;0.000;0.000;2023-04-10T04:49:10;1.20;;;1.10;;
66707;SDS011;53622;0.000;0.000;2023-04-10T04:51:48;0.93;;;0.90;;
66707;SDS011;53622;0.000;0.000;2023-04-10T04:54:36;1.02;;;1.00;;
66707;SDS011;53622;0.000;0.000;2023-04-10T04:57:14;1.05;;;1.05;;
66707;SDS011;53622;0.000;0.000;2023-04-10T05:00:21;1.40;;;1.30;;
66707;SDS011;53622;0.000;0.000;2023-04-10T05:03:18;0.90;;;0.90;;
66707;SDS011;53622;0.000;0.000;2023-04-10T05:06:26;0.90;;;0.90;;
66707;SDS011;53622;0.000;0.000;2023-04-10T05:09:14;1.20;;;1.10;;
66707;SDS011;53622;0.000;0.000;2023-04-10T05:12:01;1.20;;;1.10;;
66707;SDS011;53622;0.000;0.000;2023-04-10T05:14:50;1.55;;;1.20;;
66707;SDS011;53622;0.000;0.000;2023-04-10T05:17:38;1.20;;;1.02;;
66707;SDS011;53622;0.000;0.000;2023-04-10T05:20:16;2.22;;;1.00;;
66707;SDS011;53622;0.000;0.000;2023-04-10T05:23:20;2.08;;;1.00;;
66707;SDS011;53622;0.000;0.000;2023-04-10T05:26:15;1.10;;;1.00;;
66707;SDS011;53622;0.000;0.000;2023-04-10T05:29:06;3.70;;;1.35;;
66707;SDS011;53622;0.000;0.000;2023-04-10T05:32:05;1.80;;;1.23;;
66707;SDS011;53622;0.000;0.000;2023-04-10T05:34:57;4.40;;;1.42;;
66707;SDS011;53622;0.000;0.000;2023-04-10T05:37:39;2.58;;;1.10;;
66707;SDS011;53622;0.000;0.000;2023-04-10T05:40:31;1.20;;;1.08;;
66707;SDS011;53622;0.000;0.000;2023-04-10T05:43:20;2.78;;;1.00;;
66707;SDS011;53622;0.000;0.000;2023-04-10T05:46:07;3.17;;;1.30;;
66707;SDS011;53622;0.000;0.000;2023-04-10T05:49:05;1.52;;;1.20;;
66707;SDS011;53622;0.000;0.000;2023-04-10T05:51:34;2.63;;;1.33;;
66707;SDS011;53622;0.000;0.000;2023-04-10T05:54:23;2.45;;;1.20;;
66707;SDS011;53622;0.000;0.000;2023-04-10T05:57:09;3.92;;;1.38;;
66707;SDS011;53622;0.000;0.000;2023-04-10T06:00:05;2.92;;;1.30;;
66707;SDS011;53622;0.000;0.000;2023-04-10T06:03:01;1.77;;;1.08;;
66707;SDS011;53622;0.000;0.000;2023-04-10T06:05:32;4.07;;;1.10;;
66707;SDS011;53622;0.000;0.000;2023-04-10T06:08:05;3.70;;;1.30;;
66707;SDS011;53622;0.000;0.000;2023-04-10T06:10:34;5.95;;;1.50;;
66707;SDS011;53622;0.000;0.000;2023-04-10T06:13:04;12.38;;;2.22;;
66707;SDS011;53622;0.000;0.000;2023-04-10T06:15:38;4.28;;;1.48;;
66707;SDS011;53622;0.000;0.000;2023-04-10T06:18:07;3.95;;;1.40;;
66707;SDS011;53622;0.000;0.000;2023-04-10T06:20:37;7.97;;;1.90;;
66707;SDS011;53622;0.000;0.000;2023-04-10T06:23:06;2.65;;;1.30;;
66707;SDS011;53622;0.000;0.000;2023-04-10T06:25:35;6.30;;;1.60;;
66707;SDS011;53622;0.000;0.000;2023-04-10T06:28:05;2.25;;;1.10;;
66707;SDS011;53622;0.000;0.000;2023-04-10T06:30:35;2.13;;;1.20;;
66707;SDS011;53622;0.000;0.000;2023-04-10T06:33:07;3.88;;;1.33;;
66707;SDS011;53622;0.000;0.000;2023-04-10T06:35:40;2.75;;;1.30;;
66707;SDS011;53622;0.000;0.000;2023-04-10T06:38:10;1.30;;;0.93;;
66707;SDS011;53622;0.000;0.000;2023-04-10T06:40:39;1.83;;;1.10;;
66707;SDS011;53622;0.000;0.000;2023-04-10T06:43:09;1.50;;;1.40;;
66707;SDS011;53622;0.000;0.000;2023-04-10T06:45:38;3.33;;;1.10;;
66707;SDS011;53622;0.000;0.000;2023-04-10T06:48:09;3.53;;;1.38;;
66707;SDS011;53622;0.000;0.000;2023-04-10T06:50:38;2.97;;;1.52;;
66707;SDS011;53622;0.000;0.000;2023-04-10T06:53:08;2.97;;;1.10;;
66707;SDS011;53622;0.000;0.000;2023-04-10T06:55:37;3.45;;;1.38;;
66707;SDS011;53622;0.000;0.000;2023-04-10T06:58:06;2.55;;;1.30;;
66707;SDS011;53622;0.000;0.000;2023-04-10T07:00:36;3.75;;;1.63;;
66707;SDS011;53622;0.000;0.000;2023-04-10T07:03:05;3.10;;;1.50;;
66707;SDS011;53622;0.000;0.000;2023-04-10T07:05:35;2.28;;;1.30;;
66707;SDS011;53622;0.000;0.000;2023-04-10T07:08:08;1.85;;;1.38;;
66707;SDS011;53622;0.000;0.000;2023-04-10T07:10:37;4.60;;;1.55;;
66707;SDS011;53622;0.000;0.000;2023-04-10T07:13:07;5.40;;;2.17;;
66707;SDS011;53622;0.000;0.000;2023-04-10T07:15:36;5.50;;;1.95;;
66707;SDS011;53622;0.000;0.000;2023-04-10T07:18:05;3.28;;;1.70;;
66707;SDS011;53622;0.000;0.000;2023-04-10T07:20:37;6.68;;;2.00;;
66707;SDS011;53622;0.000;0.000;2023-04-10T07:23:07;4.70;;;1.83;;
66707;SDS011;53622;0.000;0.000;2023-04-10T07:25:36;3.95;;;2.15;;
66707;SDS011;53622;0.000;0.000;2023-04-10T07:28:05;5.65;;;2.22;;
66707;SDS011;53622;0.000;0.000;2023-04-10T07:30:35;5.78;;;2.08;;
66707;SDS011;53622;0.000;0.000;2023-04-10T07:33:04;6.32;;;2.05;;
66707;SDS011;53622;0.000;0.000;2023-04-10T07:35:34;9.88;;;2.40;;
66707;SDS011;53622;0.000;0.000;2023-04-10T07:38:05;6.00;;;2.33;;
66707;SDS011;53622;0.000;0.000;2023-04-10T07:40:34;6.05;;;2.10;;
66707;SDS011;53622;0.000;0.000;2023-04-10T07:43:03;6.75;;;2.00;;
66707;SDS011;53622;0.000;0.000;2023-04-10T07:45:33;7.05;;;1.98;;
66707;SDS011;53622;0.000;0.000;2023-04-10T07:48:02;4.95;;;1.95;;
66707;SDS011;53622;0.000;0.000;2023-04-10T07:50:32;4.78;;;1.98;;
66707;SDS011;53622;0.000;0.000;2023-04-10T07:53:02;4.60;;;1.92;;
66707;SDS011;53622;0.000;0.000;2023-04-10T07:55:38;5.10;;;2.13;;
66707;SDS011;53622;0.000;0.000;2023-04-10T07:58:07;3.47;;;1.80;;
66707;SDS011;53622;0.000;0.000;2023-04-10T08:00:38;6.28;;;2.08;;
66707;SDS011;53622;0.000;0.000;2023-04-10T08:03:07;6.05;;;1.90;;
66707;SDS011;53622;0.000;0.000;2023-04-10T08:05:37;5.63;;;2.10;;
66707;SDS011;53622;0.000;0.000;2023-04-10T08:08:06;4.32;;;2.33;;
66707;SDS011;53622;0.000;0.000;2023-04-10T08:10:37;6.30;;;1.80;;
66707;SDS011;53622;0.000;0.000;2023-04-10T08:13:07;3.10;;;1.77;;
66707;SDS011;53622;0.000;0.000;2023-04-10T08:15:36;5.03;;;1.65;;
66707;SDS011;53622;0.000;0.000;2023-04-10T08:18:06;3.17;;;1.92;;
66707;SDS011;53622;0.000;0.000;2023-04-10T08:20:35;5.15;;;1.80;;
66707;SDS011;53622;0.000;0.000;2023-04-10T08:23:05;5.72;;;2.00;;
66707;SDS011;53622;0.000;0.000;2023-04-10T08:25:48;3.13;;;1.75;;
66707;SDS011;53622;0.000;0.000;2023-04-10T08:28:17;6.30;;;2.00;;
66707;SDS011;53622;0.000;0.000;2023-04-10T08:30:47;2.80;;;2.05;;
66707;SDS011;53622;0.000;0.000;2023-04-10T08:33:16;4.72;;;1.77;;
66707;SDS011;53622;0.000;0.000;2023-04-10T08:35:46;6.88;;;1.92;;
66707;SDS011;53622;0.000;0.000;2023-04-10T08:38:15;3.50;;;1.70;;
66707;SDS011;53622;0.000;0.000;2023-04-10T08:40:44;5.70;;;2.42;;
66707;SDS011;53622;0.000;0.000;2023-04-10T08:43:15;6.07;;;2.45;;
66707;SDS011;53622;0.000;0.000;2023-04-10T08:45:44;7.15;;;1.92;;
66707;SDS011;53622;0.000;0.000;2023-04-10T08:48:14;6.68;;;2.00;;
66707;SDS011;53622;0.000;0.000;2023-04-10T08:50:46;5.22;;;2.45;;
66707;SDS011;53622;0.000;0.000;2023-04-10T08:53:16;4.25;;;2.00;;
66707;SDS011;53622;0.000;0.000;2023-04-10T08:55:50;4.78;;;1.88;;
66707;SDS011;53622;0.000;0.000;2023-04-10T08:58:21;2.88;;;2.00;;
66707;SDS011;53622;0.000;0.000;2023-04-10T09:00:52;4.50;;;2.17;;
66707;SDS011;53622;0.000;0.000;2023-04-10T09:03:21;5.35;;;1.90;;
66707;SDS011;53622;0.000;0.000;2023-04-10T09:05:52;3.28;;;1.98;;
66707;SDS011;53622;0.000;0.000;2023-04-10T09:08:21;5.00;;;2.17;;
66707;SDS011;53622;0.000;0.000;2023-04-10T09:10:51;3.20;;;2.30;;
66707;SDS011;53622;0.000;0.000;2023-04-10T09:13:36;3.10;;;2.03;;
66707;SDS011;53622;0.000;0.000;2023-04-10T09:16:07;4.40;;;1.88;;
66707;SDS011;53622;0.000;0.000;2023-04-10T09:18:41;2.65;;;1.73;;
66707;SDS011;53622;0.000;0.000;2023-04-10T09:21:12;2.72;;;1.98;;
66707;SDS011;53622;0.000;0.000;2023-04-10T09:23:43;5.68;;;2.00;;
66707;SDS011;53622;0.000;0.000;2023-04-10T09:26:26;8.23;;;1.75;;
66707;SDS011;53622;0.000;0.000;2023-04-10T09:28:59;3.83;;;1.88;;
66707;SDS011;53622;0.000;0.000;2023-04-10T09:31:30;6.10;;;2.20;;
66707;SDS011;53622;0.000;0.000;2023-04-10T09:34:07;3.78;;;1.85;;
66707;SDS011;53622;0.000;0.000;2023-04-10T09:36:41;2.10;;;1.80;;
66707;SDS011;53622;0.000;0.000;2023-04-10T09:39:11;3.63;;;2.10;;
66707;SDS011;53622;0.000;0.000;2023-04-10T09:41:47;4.07;;;2.08;;
66707;SDS011;53622;0.000;0.000;2023-04-10T09:44:27;5.15;;;2.38;;
66707;SDS011;53622;0.000;0.000;2023-04-10T09:46:57;3.15;;;2.08;;
66707;SDS011;53622;0.000;0.000;2023-04-10T09:49:26;3.92;;;2.20;;
66707;SDS011;53622;0.000;0.000;2023-04-10T09:51:56;4.22;;;2.45;;
66707;SDS011;53622;0.000;0.000;2023-04-10T09:54:34;4.55;;;2.20;;
66707;SDS011;53622;0.000;0.000;2023-04-10T09:57:04;4.63;;;2.13;;
66707;SDS011;53622;0.000;0.000;2023-04-10T09:59:38;2.85;;;2.30;;
66707;SDS011;53622;0.000;0.000;2023-04-10T10:02:11;2.58;;;2.13;;
66707;SDS011;53622;0.000;0.000;2023-04-10T10:04:41;3.75;;;2.40;;
66707;SDS011;53622;0.000;0.000;2023-04-10T10:07:14;2.50;;;2.30;;
66707;SDS011;53622;0.000;0.000;2023-04-10T10:09:46;5.03;;;2.53;;
66707;SDS011;53622;0.000;0.000;2023-04-10T10:12:18;2.97;;;2.13;;
66707;SDS011;53622;0.000;0.000;2023-04-10T10:17:57;2.42;;;2.22;;
66707;SDS011;53622;0.000;0.000;2023-04-10T10:20:34;2.58;;;2.08;;
66707;SDS011;53622;0.000;0.000;2023-04-10T10:23:06;3.08;;;2.13;;
66707;SDS011;53622;0.000;0.000;2023-04-10T10:25:35;2.78;;;2.20;;
66707;SDS011;53622;0.000;0.000;2023-04-10T10:28:06;3.45;;;1.92;;
66707;SDS011;53622;0.000;0.000;2023-04-10T10:30:41;4.68;;;1.98;;
66707;SDS011;53622;0.000;0.000;2023-04-10T10:33:10;3.72;;;2.33;;
66707;SDS011;53622;0.000;0.000;2023-04-10T10:35:41;3.33;;;2.15;;
66707;SDS011;53622;0.000;0.000;2023-04-10T10:38:11;3.80;;;1.95;;
66707;SDS011;53622;0.000;0.000;2023-04-10T10:40:42;3.55;;;2.00;;
66707;SDS011;53622;0.000;0.000;2023-04-10T10:43:16;3.58;;;2.28;;
66707;SDS011;53622;0.000;0.000;2023-04-10T10:45:53;3.17;;;1.95;;
66707;SDS011;53622;0.000;0.000;2023-04-10T10:48:28;4.05;;;2.28;;
66707;SDS011;53622;0.000;0.000;2023-04-10T10:50:58;2.40;;;1.83;;
66707;SDS011;53622;0.000;0.000;2023-04-10T10:53:36;3.65;;;2.35;;
66707;SDS011;53622;0.000;0.000;2023-04-10T10:59:01;2.83;;;2.28;;
66707;SDS011;53622;0.000;0.000;2023-04-10T11:01:32;3.38;;;1.80;;
66707;SDS011;53622;0.000;0.000;2023-04-10T11:04:10;1.77;;;1.60;;
66707;SDS011;53622;0.000;0.000;2023-04-10T11:07:12;2.92;;;2.20;;
66707;SDS011;53622;0.000;0.000;2023-04-10T11:09:46;2.78;;;2.10;;
66707;SDS011;53622;0.000;0.000;2023-04-10T11:12:20;1.90;;;1.80;;
66707;SDS011;53622;0.000;0.000;2023-04-10T11:14:57;4.55;;;1.95;;
66707;SDS011;53622;0.000;0.000;2023-04-10T11:17:47;1.95;;;1.80;;
66707;SDS011;53622;0.000;0.000;2023-04-10T11:20:18;2.72;;;1.77;;
66707;SDS011;53622;0.000;0.000;2023-04-10T11:23:08;4.00;;;1.98;;
66707;SDS011;53622;0.000;0.000;2023-04-10T11:25:45;3.28;;;2.05;;
66707;SDS011;53622;0.000;0.000;2023-04-10T11:31:14;3.28;;;1.90;;
66707;SDS011;53622;0.000;0.000;2023-04-10T11:33:48;1.83;;;1.70;;
66707;SDS011;53622;0.000;0.000;2023-04-10T11:36:19;2.53;;;2.08;;
66707;SDS011;53622;0.000;0.000;2023-04-10T11:38:52;3.80;;;1.90;;
66707;SDS011;53622;0.000;0.000;2023-04-10T11:41:27;3.38;;;1.80;;
66707;SDS011;53622;0.000;0.000;2023-04-10T11:43:58;2.28;;;1.63;;
66707;SDS011;53622;0.000;0.000;2023-04-10T11:46:30;2.17;;;1.80;;
66707;SDS011;53622;0.000;0.000;2023-04-10T11:49:05;3.00;;;1.70;;
66707;SDS011;53622;0.000;0.000;2023-04-10T11:51:36;2.67;;;1.70;;
66707;SDS011;53622;0.000;0.000;2023-04-10T11:54:07;2.70;;;1.60;;
66707;SDS011;53622;0.000;0.000;2023-04-10T11:56:38;2.35;;;1.77;;
66707;SDS011;53622;0.000;0.000;2023-04-10T11:59:10;3.67;;;1.50;;
66707;SDS011;53622;0.000;0.000;2023-04-10T12:01:42;1.50;;;1.40;;
66707;SDS011;53622;0.000;0.000;2023-04-10T12:04:15;1.70;;;1.55;;
66707;SDS011;53622;0.000;0.000;2023-04-10T12:06:46;2.33;;;1.63;;
66707;SDS011;53622;0.000;0.000;2023-04-10T12:09:17;2.63;;;1.42;;
66707;SDS011;53622;0.000;0.000;2023-04-10T12:11:49;1.65;;;1.55;;
66707;SDS011;53622;0.000;0.000;2023-04-10T12:14:19;1.52;;;1.38;;
66707;SDS011;53622;0.000;0.000;2023-04-10T12:16:49;3.60;;;1.30;;
66707;SDS011;53622;0.000;0.000;2023-04-10T12:19:21;2.20;;;1.52;;
66707;SDS011;53622;0.000;0.000;2023-04-10T12:21:52;2.45;;;1.20;;
66707;SDS011;53622;0.000;0.000;2023-04-10T12:24:40;1.33;;;1.23;;
66707;SDS011;53622;0.000;0.000;2023-04-10T12:27:14;1.75;;;1.30;;
66707;SDS011;53622;0.000;0.000;2023-04-10T12:29:45;1.27;;;1.15;;
66707;SDS011;53622;0.000;0.000;2023-04-10T12:32:17;2.67;;;1.30;;
66707;SDS011;53622;0.000;0.000;2023-04-10T12:34:52;1.42;;;1.33;;
66707;SDS011;53622;0.000;0.000;2023-04-10T12:37:23;2.80;;;1.40;;
66707;SDS011;53622;0.000;0.000;2023-04-10T12:40:03;9.15;;;1.77;;
66707;SDS011;53622;0.000;0.000;2023-04-10T12:42:33;2.72;;;1.15;;
66707;SDS011;53622;0.000;0.000;2023-04-10T12:45:08;8.68;;;1.50;;
66707;SDS011;53622;0.000;0.000;2023-04-10T12:47:43;8.57;;;1.60;;
66707;SDS011;53622;0.000;0.000;2023-04-10T12:50:15;6.10;;;1.75;;
66707;SDS011;53622;0.000;0.000;2023-04-10T12:53:00;8.35;;;1.45;;
66707;SDS011;53622;0.000;0.000;2023-04-10T12:55:31;7.05;;;1.52;;
66707;SDS011;53622;0.000;0.000;2023-04-10T12:58:13;6.80;;;1.70;;
66707;SDS011;53622;0.000;0.000;2023-04-10T13:00:44;5.13;;;1.40;;
66707;SDS011;53622;0.000;0.000;2023-04-10T13:03:14;4.78;;;1.52;;
66707;SDS011;53622;0.000;0.000;2023-04-10T13:05:45;2.55;;;1.40;;
66707;SDS011;53622;0.000;0.000;2023-04-10T13:08:14;2.88;;;1.40;;
66707;SDS011;53622;0.000;0.000;2023-04-10T13:10:43;6.40;;;1.60;;
66707;SDS011;53622;0.000;0.000;2023-04-10T13:13:13;1.58;;;1.15;;
66707;SDS011;53622;0.000;0.000;2023-04-10T13:15:42;4.22;;;1.48;;
66707;SDS011;53622;0.000;0.000;2023-04-10T13:18:12;4.97;;;1.30;;
66707;SDS011;53622;0.000;0.000;2023-04-10T13:20:41;4.68;;;1.50;;
66707;SDS011;53622;0.000;0.000;2023-04-10T13:23:11;9.32;;;1.67;;
66707;SDS011;53622;0.000;0.000;2023-04-10T13:25:41;6.18;;;1.52;;
66707;SDS011;53622;0.000;0.000;2023-04-10T13:28:10;5.50;;;1.30;;
66707;SDS011;53622;0.000;0.000;2023-04-10T13:30:40;8.02;;;1.70;;
66707;SDS011;53622;0.000;0.000;2023-04-10T13:33:10;6.63;;;1.17;;
66707;SDS011;53622;0.000;0.000;2023-04-10T13:35:39;5.15;;;1.25;;
66707;SDS011;53622;0.000;0.000;2023-04-10T13:38:08;3.22;;;1.60;;
66707;SDS011;53622;0.000;0.000;2023-04-10T13:40:40;6.57;;;1.42;;
66707;SDS011;53622;0.000;0.000;2023-04-10T13:43:09;2.55;;;1.15;;
66707;SDS011;53622;0.000;0.000;2023-04-10T13:45:39;5.35;;;1.67;;
66707;SDS011;53622;0.000;0.000;2023-04-10T13:48:09;2.50;;;1.15;;
66707;SDS011;53622;0.000;0.000;2023-04-10T13:50:38;4.57;;;1.67;;
66707;SDS011;53622;0.000;0.000;2023-04-10T13:53:07;7.13;;;1.30;;
66707;SDS011;53622;0.000;0.000;2023-04-10T13:55:37;1.40;;;1.30;;
66707;SDS011;53622;0.000;0.000;2023-04-10T13:58:11;4.55;;;1.20;;
66707;SDS011;53622;0.000;0.000;2023-04-10T14:00:41;2.72;;;1.25;;
66707;SDS011;53622;0.000;0.000;2023-04-10T14:03:11;3.70;;;1.20;;
66707;SDS011;53622;0.000;0.000;2023-04-10T14:05:40;3.00;;;1.15;;
66707;SDS011;53622;0.000;0.000;2023-04-10T14:08:10;1.17;;;0.95;;
66707;SDS011;53622;0.000;0.000;2023-04-10T14:10:42;2.13;;;1.27;;
66707;SDS011;53622;0.000;0.000;2023-04-10T14:13:13;2.08;;;1.15;;
66707;SDS011;53622;0.000;0.000;2023-04-10T14:15:43;1.80;;;0.88;;
66707;SDS011;53622;0.000;0.000;2023-04-10T14:18:12;1.70;;;1.00;;
66707;SDS011;53622;0.000;0.000;2023-04-10T14:20:44;1.98;;;1.02;;
66707;SDS011;53622;0.000;0.000;2023-04-10T14:23:13;3.10;;;1.33;;
66707;SDS011;53622;0.000;0.000;2023-04-10T14:25:44;2.20;;;1.10;;
66707;SDS011;53622;0.000;0.000;2023-04-10T14:28:17;2.38;;;1.30;;
66707;SDS011;53622;0.000;0.000;2023-04-10T14:30:46;2.10;;;1.10;;
66707;SDS011;53622;0.000;0.000;2023-04-10T14:33:16;2.00;;;1.10;;
66707;SDS011;53622;0.000;0.000;2023-04-10T14:35:46;2.15;;;1.23;;
66707;SDS011;53622;0.000;0.000;2023-04-10T14:38:16;1.88;;;1.20;;
66707;SDS011;53622;0.000;0.000;2023-04-10T14:40:45;2.60;;;1.20;;
66707;SDS011;53622;0.000;0.000;2023-04-10T14:43:17;2.58;;;1.13;;
66707;SDS011;53622;0.000;0.000;2023-04-10T14:45:47;1.20;;;0.90;;
66707;SDS011;53622;0.000;0.000;2023-04-10T14:48:16;1.65;;;1.27;;
66707;SDS011;53622;0.000;0.000;2023-04-10T14:50:47;1.30;;;1.20;;
66707;SDS011;53622;0.000;0.000;2023-04-10T14:53:16;1.27;;;1.00;;
66707;SDS011;53622;0.000;0.000;2023-04-10T14:55:47;2.55;;;1.25;;
66707;SDS011;53622;0.000;0.000;2023-04-10T14:58:18;1.52;;;1.02;;
66707;SDS011;53622;0.000;0.000;2023-04-10T15:00:47;1.75;;;0.88;;
66707;SDS011;53622;0.000;0.000;2023-04-10T15:03:18;2.53;;;0.98;;
66707;SDS011;53622;0.000;0.000;2023-04-10T15:05:57;1.25;;;1.10;;
66707;SDS011;53622;0.000;0.000;2023-04-10T15:08:26;1.20;;;0.98;;
66707;SDS011;53622;0.000;0.000;2023-04-10T15:10:56;1.55;;;1.00;;
66707;SDS011;53622;0.000;0.000;2023-04-10T15:13:27;1.63;;;0.90;;
66707;SDS011;53622;0.000;0.000;2023-04-10T15:15:56;2.35;;;1.00;;
66707;SDS011;53622;0.000;0.000;2023-04-10T15:18:26;1.15;;;1.10;;
66707;SDS011;53622;0.000;0.000;2023-04-10T15:20:55;2.08;;;0.90;;
66707;SDS011;53622;0.000;0.000;2023-04-10T15:23:25;1.20;;;1.00;;
66707;SDS011;53622;0.000;0.000;2023-04-10T15:25:54;2.10;;;1.00;;
66707;SDS011;53622;0.000;0.000;2023-04-10T15:28:23;1.58;;;1.20;;
66707;SDS011;53622;0.000;0.000;2023-04-10T15:30:55;1.83;;;1.10;;
66707;SDS011;53622;0.000;0.000;2023-04-10T15:33:25;1.27;;;1.10;;
66707;SDS011;53622;0.000;0.000;2023-04-10T15:35:54;3.17;;;1.20;;
66707;SDS011;53622;0.000;0.000;2023-04-10T15:38:23;1.65;;;1.10;;
66707;SDS011;53622;0.000;0.000;2023-04-10T15:40:55;1.10;;;1.00;;
66707;SDS011;53622;0.000;0.000;2023-04-10T15:43:24;0.98;;;0.90;;
66707;SDS011;53622;0.000;0.000;2023-04-10T15:45:54;3.10;;;0.90;;
66707;SDS011;53622;0.000;0.000;2023-04-10T15:48:28;3.47;;;1.08;;